Terminal Aerodrome Forecast
Issued by NWS Memphis, TN

Home | Current Version | Previous Version | Text Only | Print | Product List | Glossary On
Versions: 1 2 3 4 5 6 7 8 9 10 11 12 13 14 15 16 17 18 19 20
464
FTUS44 KMEG 200529
TAFMKL
TAF
KMKL 200529Z 2006/2106 21006KT 6SM BR VCSH BKN007 OVC015
      TEMPO 2008/2012 3SM -DZ BR OVC004
     FM201600 20008KT P6SM VCSH BKN015 OVC250
     FM201900 20010KT P6SM SCT030 BKN250
     FM210000 20006KT P6SM BKN150=

USA.gov is the U.S. government's official web portal to all federal, state and local government web resources and services.